<?xml version="1.0" encoding="utf-8"?>
<gpx xmlns:xsi="http://www.w3.org/2001/XMLSchema-instance" xmlns:xsd="http://www.w3.org/2001/XMLSchema" version="1.1" creator="Shapelink.com" xmlns="http://www.topografix.com/GPX/1/1" xmlns:gpxtpx="http://www.garmin.com/xmlschemas/TrackPointExtension/v1">
  <metadata>
    <name>Övrigt 2.52 km, 2019-05-26</name>
    <desc></desc>
    <author><name>Marian Moron</name></author> 
    <time>2019-05-26T10:28:11Z</time>
  </metadata>
  <trk>
    <name>Övrigt 2.52 km, 2019-05-26</name>
    <trkseg>
      <trkpt lat="51.208122368032" lon="4.407094809671">
        <ele>3.2</ele>
        <time>2019-05-26T10:28:11Z</time>
      </trkpt>
      <trkpt lat="51.208380865828" lon="4.40649391126">
        <ele>3.2</ele>
        <time>2019-05-26T10:28:44Z</time>
      </trkpt>
      <trkpt lat="51.208521849386" lon="4.406195264163">
        <ele>3.4</ele>
        <time>2019-05-26T10:29:00Z</time>
      </trkpt>
      <trkpt lat="51.208572224605" lon="4.406187636634">
        <ele>3.2</ele>
        <time>2019-05-26T10:29:03Z</time>
      </trkpt>
      <trkpt lat="51.208975142538" lon="4.405826795839">
        <ele>2.8</ele>
        <time>2019-05-26T10:29:33Z</time>
      </trkpt>
      <trkpt lat="51.209361045214" lon="4.405465703587">
        <ele>1.4</ele>
        <time>2019-05-26T10:30:07Z</time>
      </trkpt>
      <trkpt lat="51.209394656633" lon="4.405482467387">
        <ele>1.6</ele>
        <time>2019-05-26T10:30:10Z</time>
      </trkpt>
      <trkpt lat="51.209633876059" lon="4.405915811617">
        <ele>4.8</ele>
        <time>2019-05-26T10:30:29Z</time>
      </trkpt>
      <trkpt lat="51.210068058479" lon="4.406383605456">
        <ele>24.6</ele>
        <time>2019-05-26T10:30:50Z</time>
      </trkpt>
      <trkpt lat="51.210193870798" lon="4.406542107185">
        <ele>30.2</ele>
        <time>2019-05-26T10:31:00Z</time>
      </trkpt>
      <trkpt lat="51.210222955991" lon="4.406565241229">
        <ele>31.2</ele>
        <time>2019-05-26T10:31:02Z</time>
      </trkpt>
      <trkpt lat="51.21054071382" lon="4.407077710595">
        <ele>38.6</ele>
        <time>2019-05-26T10:31:31Z</time>
      </trkpt>
      <trkpt lat="51.210857046726" lon="4.407602752811">
        <ele>39</ele>
        <time>2019-05-26T10:32:01Z</time>
      </trkpt>
      <trkpt lat="51.21106542076" lon="4.407530500833">
        <ele>36.8</ele>
        <time>2019-05-26T10:32:24Z</time>
      </trkpt>
      <trkpt lat="51.211375718698" lon="4.407651200193">
        <ele>26.6</ele>
        <time>2019-05-26T10:32:54Z</time>
      </trkpt>
      <trkpt lat="51.211413772524" lon="4.408239777211">
        <ele>39.4</ele>
        <time>2019-05-26T10:33:42Z</time>
      </trkpt>
      <trkpt lat="51.211581159067" lon="4.407833087423">
        <ele>37.4</ele>
        <time>2019-05-26T10:33:57Z</time>
      </trkpt>
      <trkpt lat="51.211592306994" lon="4.407881870081">
        <ele>33.4</ele>
        <time>2019-05-26T10:34:04Z</time>
      </trkpt>
      <trkpt lat="51.211958512205" lon="4.408274059182">
        <ele>7.6</ele>
        <time>2019-05-26T10:34:41Z</time>
      </trkpt>
      <trkpt lat="51.212152469371" lon="4.408627775362">
        <ele>10.2</ele>
        <time>2019-05-26T10:35:00Z</time>
      </trkpt>
      <trkpt lat="51.212224721349" lon="4.408684185549">
        <ele>15.6</ele>
        <time>2019-05-26T10:35:06Z</time>
      </trkpt>
      <trkpt lat="51.212490176122" lon="4.409032537313">
        <ele>15.8</ele>
        <time>2019-05-26T10:35:35Z</time>
      </trkpt>
      <trkpt lat="51.212597883537" lon="4.409210317412">
        <ele>21.6</ele>
        <time>2019-05-26T10:35:48Z</time>
      </trkpt>
      <trkpt lat="51.212789158495" lon="4.409354569911">
        <ele>26.2</ele>
        <time>2019-05-26T10:36:00Z</time>
      </trkpt>
      <trkpt lat="51.213076741484" lon="4.409116188675">
        <ele>39.8</ele>
        <time>2019-05-26T10:36:31Z</time>
      </trkpt>
      <trkpt lat="51.213138096992" lon="4.409108980241">
        <ele>47.4</ele>
        <time>2019-05-26T10:36:38Z</time>
      </trkpt>
      <trkpt lat="51.213130469463" lon="4.409076123193">
        <ele>30.4</ele>
        <time>2019-05-26T10:40:59Z</time>
      </trkpt>
      <trkpt lat="51.213311183227" lon="4.409257004595">
        <ele>18.2</ele>
        <time>2019-05-26T10:41:49Z</time>
      </trkpt>
      <trkpt lat="51.213729104761" lon="4.409249963799">
        <ele>19.6</ele>
        <time>2019-05-26T10:42:27Z</time>
      </trkpt>
      <trkpt lat="51.213966647807" lon="4.409171676853">
        <ele>28.4</ele>
        <time>2019-05-26T10:42:46Z</time>
      </trkpt>
      <trkpt lat="51.214313658467" lon="4.409300925751">
        <ele>23.2</ele>
        <time>2019-05-26T10:43:26Z</time>
      </trkpt>
      <trkpt lat="51.214263450886" lon="4.409363370906">
        <ele>14</ele>
        <time>2019-05-26T10:45:17Z</time>
      </trkpt>
      <trkpt lat="51.214304689834" lon="4.409365298743">
        <ele>14.2</ele>
        <time>2019-05-26T10:45:23Z</time>
      </trkpt>
      <trkpt lat="51.214455396396" lon="4.409340572138">
        <ele>13.6</ele>
        <time>2019-05-26T10:45:37Z</time>
      </trkpt>
      <trkpt lat="51.214559499594" lon="4.409255998767">
        <ele>10.2</ele>
        <time>2019-05-26T10:45:48Z</time>
      </trkpt>
      <trkpt lat="51.214559248137" lon="4.409265973228">
        <ele>12</ele>
        <time>2019-05-26T10:46:57Z</time>
      </trkpt>
      <trkpt lat="51.214584393837" lon="4.409373010091">
        <ele>13.8</ele>
        <time>2019-05-26T10:47:05Z</time>
      </trkpt>
      <trkpt lat="51.214575089928" lon="4.409714572516">
        <ele>9.4</ele>
        <time>2019-05-26T10:47:27Z</time>
      </trkpt>
      <trkpt lat="51.214499569009" lon="4.409676770147">
        <ele>10</ele>
        <time>2019-05-26T10:48:29Z</time>
      </trkpt>
      <trkpt lat="51.214507196538" lon="4.409478119117">
        <ele>5.6</ele>
        <time>2019-05-26T10:48:51Z</time>
      </trkpt>
      <trkpt lat="51.214571066616" lon="4.409382230181">
        <ele>5.6</ele>
        <time>2019-05-26T10:49:25Z</time>
      </trkpt>
      <trkpt lat="51.214598810705" lon="4.409530086897">
        <ele>6.8</ele>
        <time>2019-05-26T10:49:37Z</time>
      </trkpt>
      <trkpt lat="51.214582130724" lon="4.409487590664">
        <ele>10</ele>
        <time>2019-05-26T10:49:53Z</time>
      </trkpt>
      <trkpt lat="51.214625046052" lon="4.409446184078">
        <ele>20.6</ele>
        <time>2019-05-26T10:50:54Z</time>
      </trkpt>
      <trkpt lat="51.214564528734" lon="4.409644164556">
        <ele>11.2</ele>
        <time>2019-05-26T10:51:47Z</time>
      </trkpt>
      <trkpt lat="51.214577185403" lon="4.40961197806">
        <ele>12.2</ele>
        <time>2019-05-26T10:51:49Z</time>
      </trkpt>
      <trkpt lat="51.214543825441" lon="4.409388097511">
        <ele>8.6</ele>
        <time>2019-05-26T10:52:31Z</time>
      </trkpt>
      <trkpt lat="51.214480374458" lon="4.409485746646">
        <ele>8.4</ele>
        <time>2019-05-26T10:52:45Z</time>
      </trkpt>
      <trkpt lat="51.214562768535" lon="4.409416260695">
        <ele>3.6</ele>
        <time>2019-05-26T10:53:28Z</time>
      </trkpt>
      <trkpt lat="51.214549692771" lon="4.409411818288">
        <ele>3.6</ele>
        <time>2019-05-26T10:53:31Z</time>
      </trkpt>
      <trkpt lat="51.214561930345" lon="4.409526398861">
        <ele>7.2</ele>
        <time>2019-05-26T10:53:44Z</time>
      </trkpt>
      <trkpt lat="51.2145489384" lon="4.409399999809">
        <ele>5.4</ele>
        <time>2019-05-26T10:55:07Z</time>
      </trkpt>
      <trkpt lat="51.214575676661" lon="4.409320204121">
        <ele>6.2</ele>
        <time>2019-05-26T10:55:26Z</time>
      </trkpt>
      <trkpt lat="51.214846831126" lon="4.409316180809">
        <ele>14</ele>
        <time>2019-05-26T11:02:29Z</time>
      </trkpt>
      <trkpt lat="51.214593194832" lon="4.409534529304">
        <ele>14.4</ele>
        <time>2019-05-26T11:02:35Z</time>
      </trkpt>
      <trkpt lat="51.214586321674" lon="4.409371752806">
        <ele>10.4</ele>
        <time>2019-05-26T11:04:16Z</time>
      </trkpt>
      <trkpt lat="51.214557068843" lon="4.409325568537">
        <ele>10.2</ele>
        <time>2019-05-26T11:05:31Z</time>
      </trkpt>
      <trkpt lat="51.214576431032" lon="4.409403855483">
        <ele>10.6</ele>
        <time>2019-05-26T11:05:40Z</time>
      </trkpt>
      <trkpt lat="51.214578191231" lon="4.409638632502">
        <ele>10.8</ele>
        <time>2019-05-26T11:05:54Z</time>
      </trkpt>
      <trkpt lat="51.214574587014" lon="4.40975279398">
        <ele>10.6</ele>
        <time>2019-05-26T11:06:00Z</time>
      </trkpt>
      <trkpt lat="51.214559583413" lon="4.410224611131">
        <ele>6</ele>
        <time>2019-05-26T11:06:22Z</time>
      </trkpt>
      <trkpt lat="51.214630159011" lon="4.410290492865">
        <ele>4.4</ele>
        <time>2019-05-26T11:06:33Z</time>
      </trkpt>
      <trkpt lat="51.21469394527" lon="4.410285966639">
        <ele>4.4</ele>
        <time>2019-05-26T11:06:39Z</time>
      </trkpt>
      <trkpt lat="51.21472244373" lon="4.410259228378">
        <ele>4.4</ele>
        <time>2019-05-26T11:06:49Z</time>
      </trkpt>
      <trkpt lat="51.214701405161" lon="4.410291582512">
        <ele>6</ele>
        <time>2019-05-26T11:07:17Z</time>
      </trkpt>
      <trkpt lat="51.214779356831" lon="4.410322846999">
        <ele>5.4</ele>
        <time>2019-05-26T11:07:47Z</time>
      </trkpt>
      <trkpt lat="51.214766448705" lon="4.410358721531">
        <ele>11.4</ele>
        <time>2019-05-26T11:12:49Z</time>
      </trkpt>
      <trkpt lat="51.214734346028" lon="4.410374228046">
        <ele>12.2</ele>
        <time>2019-05-26T11:13:12Z</time>
      </trkpt>
      <trkpt lat="51.214664357163" lon="4.410339778437">
        <ele>13.6</ele>
        <time>2019-05-26T11:15:42Z</time>
      </trkpt>
      <trkpt lat="51.214552794074" lon="4.410377916082">
        <ele>13</ele>
        <time>2019-05-26T11:15:56Z</time>
      </trkpt>
      <trkpt lat="51.214517170999" lon="4.410309603597">
        <ele>10.4</ele>
        <time>2019-05-26T11:16:03Z</time>
      </trkpt>
      <trkpt lat="51.214509208194" lon="4.409997377822">
        <ele>5.4</ele>
        <time>2019-05-26T11:16:16Z</time>
      </trkpt>
      <trkpt lat="51.214458246242" lon="4.409726474814">
        <ele>4.4</ele>
        <time>2019-05-26T11:16:36Z</time>
      </trkpt>
      <trkpt lat="51.214453636197" lon="4.409419026722">
        <ele>4.4</ele>
        <time>2019-05-26T11:16:54Z</time>
      </trkpt>
      <trkpt lat="51.214516500447" lon="4.409509886518">
        <ele>5</ele>
        <time>2019-05-26T11:27:47Z</time>
      </trkpt>
      <trkpt lat="51.214477440793" lon="4.409481471877">
        <ele>6.4</ele>
        <time>2019-05-26T11:27:59Z</time>
      </trkpt>
      <trkpt lat="51.214427903764" lon="4.409405615682">
        <ele>7.2</ele>
        <time>2019-05-26T11:28:13Z</time>
      </trkpt>
      <trkpt lat="51.21444081189" lon="4.409356833024">
        <ele>5.8</ele>
        <time>2019-05-26T11:28:40Z</time>
      </trkpt>
      <trkpt lat="51.214457156595" lon="4.409344930726">
        <ele>6</ele>
        <time>2019-05-26T11:28:42Z</time>
      </trkpt>
      <trkpt lat="51.214413403077" lon="4.409388851882">
        <ele>4.4</ele>
        <time>2019-05-26T11:29:02Z</time>
      </trkpt>
      <trkpt lat="51.214314077562" lon="4.40941081246">
        <ele>4.4</ele>
        <time>2019-05-26T11:30:59Z</time>
      </trkpt>
      <trkpt lat="51.214066224779" lon="4.409378625964">
        <ele>5.4</ele>
        <time>2019-05-26T11:31:50Z</time>
      </trkpt>
      <trkpt lat="51.213951476568" lon="4.409083666903">
        <ele>6.6</ele>
        <time>2019-05-26T11:32:15Z</time>
      </trkpt>
      <trkpt lat="51.21394795617" lon="4.408479918646">
        <ele>6.8</ele>
        <time>2019-05-26T11:32:37Z</time>
      </trkpt>
      <trkpt lat="51.213962037762" lon="4.408405152098">
        <ele>6.8</ele>
        <time>2019-05-26T11:32:41Z</time>
      </trkpt>
      <trkpt lat="51.213993553706" lon="4.408275819381">
        <ele>6.2</ele>
        <time>2019-05-26T11:32:48Z</time>
      </trkpt>
      <trkpt lat="51.213960696658" lon="4.407879606968">
        <ele>4.8</ele>
        <time>2019-05-26T11:33:04Z</time>
      </trkpt>
      <trkpt lat="51.213877212934" lon="4.407503175839">
        <ele>6.4</ele>
        <time>2019-05-26T11:33:22Z</time>
      </trkpt>
      <trkpt lat="51.213820886566" lon="4.407321959161">
        <ele>4.8</ele>
        <time>2019-05-26T11:33:33Z</time>
      </trkpt>
      <trkpt lat="51.213754585737" lon="4.407237972523">
        <ele>11.4</ele>
        <time>2019-05-26T11:33:42Z</time>
      </trkpt>
      <trkpt lat="51.213578062923" lon="4.407193632272">
        <ele>23.2</ele>
        <time>2019-05-26T11:33:56Z</time>
      </trkpt>
      <trkpt lat="51.213468427671" lon="4.407228836252">
        <ele>34.2</ele>
        <time>2019-05-26T11:34:10Z</time>
      </trkpt>
      <trkpt lat="51.213007926085" lon="4.407291449045">
        <ele>36</ele>
        <time>2019-05-26T11:34:33Z</time>
      </trkpt>
      <trkpt lat="51.212543401187" lon="4.407389181999">
        <ele>19.8</ele>
        <time>2019-05-26T11:35:01Z</time>
      </trkpt>
      <trkpt lat="51.212418678515" lon="4.40744022777">
        <ele>12.2</ele>
        <time>2019-05-26T11:35:10Z</time>
      </trkpt>
      <trkpt lat="51.212280880079" lon="4.407448777308">
        <ele>5.4</ele>
        <time>2019-05-26T11:35:25Z</time>
      </trkpt>
      <trkpt lat="51.211830520592" lon="4.407611386168">
        <ele>1</ele>
        <time>2019-05-26T11:35:55Z</time>
      </trkpt>
      <trkpt lat="51.211403714244" lon="4.407804169868">
        <ele>22.6</ele>
        <time>2019-05-26T11:36:22Z</time>
      </trkpt>
      <trkpt lat="51.210953690033" lon="4.40767659735">
        <ele>3.2</ele>
        <time>2019-05-26T11:36:49Z</time>
      </trkpt>
      <trkpt lat="51.210675913867" lon="4.407653295668">
        <ele>2.8</ele>
        <time>2019-05-26T11:37:11Z</time>
      </trkpt>
      <trkpt lat="51.210340470229" lon="4.407197907041">
        <ele>8.2</ele>
        <time>2019-05-26T11:37:43Z</time>
      </trkpt>
      <trkpt lat="51.210284060042" lon="4.407015181621">
        <ele>11.4</ele>
        <time>2019-05-26T11:37:54Z</time>
      </trkpt>
      <trkpt lat="51.209997315243" lon="4.406548477429">
        <ele>9.4</ele>
        <time>2019-05-26T11:38:17Z</time>
      </trkpt>
      <trkpt lat="51.209975438484" lon="4.406435824693">
        <ele>8.2</ele>
        <time>2019-05-26T11:38:22Z</time>
      </trkpt>
      <trkpt lat="51.209928918939" lon="4.406059142107">
        <ele>10.8</ele>
        <time>2019-05-26T11:38:39Z</time>
      </trkpt>
      <trkpt lat="51.20990452761" lon="4.406003234834">
        <ele>10.4</ele>
        <time>2019-05-26T11:38:42Z</time>
      </trkpt>
      <trkpt lat="51.209533125621" lon="4.405747167789">
        <ele>2.6</ele>
        <time>2019-05-26T11:39:08Z</time>
      </trkpt>
      <trkpt lat="51.209491886673" lon="4.405782371769">
        <ele>2</ele>
        <time>2019-05-26T11:39:12Z</time>
      </trkpt>
      <trkpt lat="51.209110594042" lon="4.406007928698">
        <ele>0</ele>
        <time>2019-05-26T11:39:38Z</time>
      </trkpt>
      <trkpt lat="51.209017303495" lon="4.406036175701">
        <ele>2.8</ele>
        <time>2019-05-26T11:39:46Z</time>
      </trkpt>
      <trkpt lat="51.208668281179" lon="4.406513692544">
        <ele>9.8</ele>
        <time>2019-05-26T11:40:18Z</time>
      </trkpt>
      <trkpt lat="51.208537858815" lon="4.406715947791">
        <ele>11.2</ele>
        <time>2019-05-26T11:40:36Z</time>
      </trkpt>
      <trkpt lat="51.208390924108" lon="4.406996909079">
        <ele>8.8</ele>
        <time>2019-05-26T11:40:52Z</time>
      </trkpt>
      <trkpt lat="51.208212892552" lon="4.407318103487">
        <ele>5.4</ele>
        <time>2019-05-26T11:41:18Z</time>
      </trkpt>
      <trkpt lat="51.207994963152" lon="4.407317516754">
        <ele>10.8</ele>
        <time>2019-05-26T11:42:35Z</time>
      </trkpt>
    </trkseg>
  </trk>
</gpx>